Pagina principale
METAR-TAF:

METAR-TAF

Aeroporti :

Boscombe Down, Inghilterra

latitudine: 51-10N, longitudine: 001-45W, altezza: 124 m

Osservazione

Il bollettino è stato emesso 30 minuti fa, alle 05:50 UTC
Vento 7 kt da nord-ovest
Temperature 3°C
Umidità 93%
Pressione 1016 hPa
Visibilità 10 km o più

METAR: EGDM 180550Z AUTO 32007KT 9999 SCT028/// 03/02 Q1016

Ora: 06:20 (06:20 UTC)

Previsione

Il bollettino è stato emesso 16 ore e 29 minuti fa, alle 13:51 UTC
Previsione valida dal 17 alle 15 UTC al 17 alle 19 UTC
Vento 6 kt da nord
Visibilità 10 km o più
Nuvoloso ad un'altezza di 2000 ft
Temporaneamente
dal 17 alle 15 UTC al 17 alle 16 UTC
Nubi sparse ad un'altezza di 1300 ft
Evoluzione graduale
dal 17 alle 16 UTC al 17 alle 19 UTC
Nuvoloso ad un'altezza di 1000 ft

TAF: EGDM 171351Z 1715/1719 36006KT 9999 BKN020 TEMPO 1715/1716 SCT013 BECMG 1716/1719 BKN010

Osservazioni e previsioni meteorologiche di più di 4000 aeroporti (messaggi METAR e TAF).

Le stazioni disponibili sono rappresentate dai dischi gialli e rossi sulla carta.

Puntare il mouse per vedere il nome della stazione.

Clicca sopra per visualizzare le osservazioni e previsioni meteorologiche.

Per cambiare la mappa : fare clic sui pulsanti verdi con una croce nera per ingrandire, il pulsante verde con un trattino per diminuire, o sulla freccia verde per le mappe adiacenti.


METAR-TAF: